sensor_id;sensor_type;location;lat;lon;timestamp;pressure;altitude;pressure_sealevel;temperature;humidity
13407;BME280;6774;48.208;10.766;2023-11-19T00:00:12;95587.75;;;7.62;95.38
13407;BME280;6774;48.208;10.766;2023-11-19T00:02:41;95593.00;;;7.70;95.03
13407;BME280;6774;48.208;10.766;2023-11-19T00:05:10;95591.19;;;7.71;95.14
13407;BME280;6774;48.208;10.766;2023-11-19T00:07:39;95582.13;;;7.74;94.94
13407;BME280;6774;48.208;10.766;2023-11-19T00:10:10;95578.50;;;7.83;95.33
13407;BME280;6774;48.208;10.766;2023-11-19T00:12:39;95579.47;;;7.90;95.04
13407;BME280;6774;48.208;10.766;2023-11-19T00:15:09;95580.13;;;7.84;95.05
13407;BME280;6774;48.208;10.766;2023-11-19T00:17:38;95574.25;;;7.82;95.23
13407;BME280;6774;48.208;10.766;2023-11-19T00:20:08;95583.41;;;7.86;95.58
13407;BME280;6774;48.208;10.766;2023-11-19T00:22:36;95575.22;;;7.89;95.75
13407;BME280;6774;48.208;10.766;2023-11-19T00:25:17;95575.69;;;7.84;95.92
13407;BME280;6774;48.208;10.766;2023-11-19T00:27:45;95572.88;;;7.94;95.89
13407;BME280;6774;48.208;10.766;2023-11-19T00:30:13;95572.28;;;7.76;96.46
13407;BME280;6774;48.208;10.766;2023-11-19T00:32:42;95565.53;;;7.81;96.37
13407;BME280;6774;48.208;10.766;2023-11-19T00:35:10;95558.25;;;7.99;96.46
13407;BME280;6774;48.208;10.766;2023-11-19T00:37:37;95553.19;;;7.90;96.73
13407;BME280;6774;48.208;10.766;2023-11-19T00:40:07;95551.72;;;7.95;96.81
13407;BME280;6774;48.208;10.766;2023-11-19T00:42:38;95553.44;;;8.11;96.59
13407;BME280;6774;48.208;10.766;2023-11-19T00:45:06;95554.47;;;8.02;97.38
13407;BME280;6774;48.208;10.766;2023-11-19T00:47:38;95545.09;;;8.08;96.87
13407;BME280;6774;48.208;10.766;2023-11-19T00:50:07;95542.34;;;7.93;98.10
13407;BME280;6774;48.208;10.766;2023-11-19T00:52:36;95553.16;;;8.06;97.82
13407;BME280;6774;48.208;10.766;2023-11-19T00:55:05;95543.91;;;8.10;97.83
13407;BME280;6774;48.208;10.766;2023-11-19T00:57:34;95547.47;;;8.25;97.45
13407;BME280;6774;48.208;10.766;2023-11-19T01:00:05;95542.28;;;8.09;98.24
13407;BME280;6774;48.208;10.766;2023-11-19T01:02:36;95545.47;;;8.27;98.37
13407;BME280;6774;48.208;10.766;2023-11-19T01:05:05;95532.31;;;8.36;98.01
13407;BME280;6774;48.208;10.766;2023-11-19T01:07:35;95552.53;;;8.35;98.16
13407;BME280;6774;48.208;10.766;2023-11-19T01:10:04;95530.94;;;8.48;97.86
13407;BME280;6774;48.208;10.766;2023-11-19T01:12:32;95540.53;;;8.33;98.46
13407;BME280;6774;48.208;10.766;2023-11-19T01:15:00;95537.03;;;8.40;97.98
13407;BME280;6774;48.208;10.766;2023-11-19T01:17:30;95533.38;;;8.49;98.34
13407;BME280;6774;48.208;10.766;2023-11-19T01:19:58;95536.69;;;8.51;97.70
13407;BME280;6774;48.208;10.766;2023-11-19T01:22:26;95542.41;;;8.55;98.52
13407;BME280;6774;48.208;10.766;2023-11-19T01:24:54;95549.56;;;8.38;98.82
13407;BME280;6774;48.208;10.766;2023-11-19T01:27:21;95556.91;;;8.51;98.64
13407;BME280;6774;48.208;10.766;2023-11-19T01:29:50;95542.75;;;8.52;98.32
13407;BME280;6774;48.208;10.766;2023-11-19T01:32:18;95537.31;;;8.53;98.26
13407;BME280;6774;48.208;10.766;2023-11-19T01:34:47;95530.59;;;8.51;97.89
13407;BME280;6774;48.208;10.766;2023-11-19T01:37:15;95517.38;;;8.59;97.68
13407;BME280;6774;48.208;10.766;2023-11-19T01:39:43;95514.69;;;8.67;97.29
13407;BME280;6774;48.208;10.766;2023-11-19T01:42:11;95516.78;;;8.49;98.10
13407;BME280;6774;48.208;10.766;2023-11-19T01:44:39;95506.53;;;8.62;97.15
13407;BME280;6774;48.208;10.766;2023-11-19T01:47:08;95514.41;;;8.62;97.56
13407;BME280;6774;48.208;10.766;2023-11-19T01:49:36;95505.78;;;8.68;97.03
13407;BME280;6774;48.208;10.766;2023-11-19T01:52:05;95497.84;;;8.76;97.22
13407;BME280;6774;48.208;10.766;2023-11-19T01:54:34;95488.75;;;8.64;97.20
13407;BME280;6774;48.208;10.766;2023-11-19T01:57:03;95485.47;;;8.62;97.33
13407;BME280;6774;48.208;10.766;2023-11-19T01:59:31;95489.31;;;8.74;97.42
13407;BME280;6774;48.208;10.766;2023-11-19T02:01:59;95473.09;;;8.71;97.05
13407;BME280;6774;48.208;10.766;2023-11-19T02:04:27;95477.03;;;8.90;96.52
13407;BME280;6774;48.208;10.766;2023-11-19T02:06:56;95471.78;;;8.67;97.35
13407;BME280;6774;48.208;10.766;2023-11-19T02:09:27;95457.88;;;8.81;97.77
13407;BME280;6774;48.208;10.766;2023-11-19T02:11:56;95475.22;;;8.90;97.52
13407;BME280;6774;48.208;10.766;2023-11-19T02:14:25;95466.97;;;8.93;97.45
13407;BME280;6774;48.208;10.766;2023-11-19T02:16:53;95462.19;;;8.97;97.49
13407;BME280;6774;48.208;10.766;2023-11-19T02:19:21;95474.66;;;8.95;98.13
13407;BME280;6774;48.208;10.766;2023-11-19T02:21:49;95470.81;;;9.05;97.82
13407;BME280;6774;48.208;10.766;2023-11-19T02:24:21;95458.63;;;9.04;97.32
13407;BME280;6774;48.208;10.766;2023-11-19T02:26:57;95446.13;;;9.06;97.75
13407;BME280;6774;48.208;10.766;2023-11-19T02:29:29;95434.66;;;9.14;97.65
13407;BME280;6774;48.208;10.766;2023-11-19T02:31:57;95435.94;;;9.03;97.52
13407;BME280;6774;48.208;10.766;2023-11-19T02:34:25;95415.88;;;8.88;99.03
13407;BME280;6774;48.208;10.766;2023-11-19T02:36:53;95412.91;;;9.05;98.12
13407;BME280;6774;48.208;10.766;2023-11-19T02:39:21;95420.63;;;9.07;98.47
13407;BME280;6774;48.208;10.766;2023-11-19T02:41:48;95414.06;;;9.03;98.45
13407;BME280;6774;48.208;10.766;2023-11-19T02:44:19;95399.28;;;8.87;98.58
13407;BME280;6774;48.208;10.766;2023-11-19T02:46:48;95408.81;;;9.03;99.23
13407;BME280;6774;48.208;10.766;2023-11-19T02:49:17;95406.09;;;9.11;99.05
13407;BME280;6774;48.208;10.766;2023-11-19T02:51:45;95401.50;;;8.75;100.00
13407;BME280;6774;48.208;10.766;2023-11-19T02:54:12;95408.81;;;9.03;100.00
13407;BME280;6774;48.208;10.766;2023-11-19T02:56:42;95394.38;;;8.99;99.74
13407;BME280;6774;48.208;10.766;2023-11-19T02:59:10;95408.63;;;8.90;99.98
13407;BME280;6774;48.208;10.766;2023-11-19T03:01:54;95403.53;;;8.88;100.00
13407;BME280;6774;48.208;10.766;2023-11-19T03:04:22;95396.34;;;8.82;100.00
13407;BME280;6774;48.208;10.766;2023-11-19T03:06:50;95387.34;;;8.76;100.00
13407;BME280;6774;48.208;10.766;2023-11-19T03:09:19;95391.00;;;9.05;100.00
13407;BME280;6774;48.208;10.766;2023-11-19T03:11:47;95381.94;;;8.93;100.00
13407;BME280;6774;48.208;10.766;2023-11-19T03:14:16;95376.13;;;8.82;100.00
13407;BME280;6774;48.208;10.766;2023-11-19T03:16:45;95379.94;;;8.95;100.00
13407;BME280;6774;48.208;10.766;2023-11-19T03:19:15;95383.22;;;8.97;100.00
13407;BME280;6774;48.208;10.766;2023-11-19T03:21:52;95389.47;;;8.81;100.00
13407;BME280;6774;48.208;10.766;2023-11-19T03:24:20;95392.59;;;8.76;100.00
13407;BME280;6774;48.208;10.766;2023-11-19T03:26:48;95390.06;;;8.68;100.00
13407;BME280;6774;48.208;10.766;2023-11-19T03:29:17;95377.97;;;8.97;100.00
13407;BME280;6774;48.208;10.766;2023-11-19T03:31:45;95385.63;;;8.83;100.00
13407;BME280;6774;48.208;10.766;2023-11-19T03:34:14;95388.16;;;8.77;100.00
13407;BME280;6774;48.208;10.766;2023-11-19T03:36:43;95395.28;;;8.91;100.00
13407;BME280;6774;48.208;10.766;2023-11-19T03:39:12;95394.13;;;9.08;100.00
13407;BME280;6774;48.208;10.766;2023-11-19T03:41:40;95390.84;;;9.06;100.00
13407;BME280;6774;48.208;10.766;2023-11-19T03:44:08;95393.47;;;8.92;100.00
13407;BME280;6774;48.208;10.766;2023-11-19T03:46:36;95389.66;;;9.09;100.00
13407;BME280;6774;48.208;10.766;2023-11-19T03:49:04;95403.00;;;9.07;100.00
13407;BME280;6774;48.208;10.766;2023-11-19T03:51:34;95402.00;;;9.08;100.00
13407;BME280;6774;48.208;10.766;2023-11-19T03:54:03;95405.09;;;9.12;100.00
13407;BME280;6774;48.208;10.766;2023-11-19T03:56:31;95397.00;;;9.28;100.00
13407;BME280;6774;48.208;10.766;2023-11-19T03:58:59;95405.38;;;9.17;100.00
13407;BME280;6774;48.208;10.766;2023-11-19T04:01:27;95403.75;;;9.16;100.00
13407;BME280;6774;48.208;10.766;2023-11-19T04:03:55;95410.25;;;9.20;100.00
13407;BME280;6774;48.208;10.766;2023-11-19T04:06:23;95404.75;;;9.15;100.00
13407;BME280;6774;48.208;10.766;2023-11-19T04:08:52;95413.06;;;9.04;100.00
13407;BME280;6774;48.208;10.766;2023-11-19T04:11:20;95415.97;;;9.09;100.00
13407;BME280;6774;48.208;10.766;2023-11-19T04:13:48;95425.13;;;9.13;100.00
13407;BME280;6774;48.208;10.766;2023-11-19T04:16:15;95403.75;;;9.16;100.00
13407;BME280;6774;48.208;10.766;2023-11-19T04:18:43;95411.63;;;9.16;100.00
13407;BME280;6774;48.208;10.766;2023-11-19T04:21:11;95415.91;;;9.17;100.00
13407;BME280;6774;48.208;10.766;2023-11-19T04:23:39;95436.75;;;9.04;100.00
13407;BME280;6774;48.208;10.766;2023-11-19T04:26:09;95425.44;;;9.33;100.00
13407;BME280;6774;48.208;10.766;2023-11-19T04:28:37;95422.69;;;9.41;100.00
13407;BME280;6774;48.208;10.766;2023-11-19T04:31:05;95429.31;;;9.22;100.00
13407;BME280;6774;48.208;10.766;2023-11-19T04:33:33;95425.13;;;9.13;100.00
13407;BME280;6774;48.208;10.766;2023-11-19T04:36:01;95434.88;;;9.27;100.00
13407;BME280;6774;48.208;10.766;2023-11-19T04:38:30;95420.16;;;9.48;100.00
13407;BME280;6774;48.208;10.766;2023-11-19T04:40:58;95421.34;;;9.30;100.00
13407;BME280;6774;48.208;10.766;2023-11-19T04:43:27;95417.16;;;9.51;100.00
13407;BME280;6774;48.208;10.766;2023-11-19T04:45:55;95413.97;;;9.55;100.00
13407;BME280;6774;48.208;10.766;2023-11-19T04:48:23;95402.09;;;9.45;100.00
13407;BME280;6774;48.208;10.766;2023-11-19T04:50:50;95411.72;;;9.52;100.00
13407;BME280;6774;48.208;10.766;2023-11-19T04:53:19;95423.72;;;9.25;100.00
13407;BME280;6774;48.208;10.766;2023-11-19T04:55:47;95417.06;;;9.29;100.00
13407;BME280;6774;48.208;10.766;2023-11-19T04:58:15;95413.34;;;9.38;100.00
13407;BME280;6774;48.208;10.766;2023-11-19T05:00:44;95421.34;;;9.30;100.00
13407;BME280;6774;48.208;10.766;2023-11-19T05:03:13;95420.00;;;9.34;100.00
13407;BME280;6774;48.208;10.766;2023-11-19T05:05:40;95423.50;;;9.41;100.00
13407;BME280;6774;48.208;10.766;2023-11-19T05:08:08;95415.50;;;9.50;100.00
13407;BME280;6774;48.208;10.766;2023-11-19T05:10:36;95419.91;;;9.43;100.00
13407;BME280;6774;48.208;10.766;2023-11-19T05:13:04;95432.94;;;9.51;100.00
13407;BME280;6774;48.208;10.766;2023-11-19T05:15:32;95429.44;;;9.44;100.00
13407;BME280;6774;48.208;10.766;2023-11-19T05:18:02;95425.53;;;9.54;100.00
13407;BME280;6774;48.208;10.766;2023-11-19T05:20:31;95428.78;;;9.41;100.00
13407;BME280;6774;48.208;10.766;2023-11-19T05:22:59;95438.13;;;9.59;100.00
13407;BME280;6774;48.208;10.766;2023-11-19T05:25:27;95442.22;;;9.47;100.00
13407;BME280;6774;48.208;10.766;2023-11-19T05:27:55;95430.31;;;9.51;100.00
13407;BME280;6774;48.208;10.766;2023-11-19T05:30:23;95437.59;;;9.63;100.00
13407;BME280;6774;48.208;10.766;2023-11-19T05:32:50;95437.41;;;9.65;100.00
13407;BME280;6774;48.208;10.766;2023-11-19T05:35:20;95427.88;;;9.64;100.00
13407;BME280;6774;48.208;10.766;2023-11-19T05:37:47;95417.88;;;9.59;100.00
13407;BME280;6774;48.208;10.766;2023-11-19T05:40:16;95419.63;;;9.52;100.00
13407;BME280;6774;48.208;10.766;2023-11-19T05:42:45;95425.88;;;9.66;100.00
13407;BME280;6774;48.208;10.766;2023-11-19T05:45:13;95419.09;;;9.78;100.00
13407;BME280;6774;48.208;10.766;2023-11-19T05:47:41;95428.78;;;9.71;100.00
13407;BME280;6774;48.208;10.766;2023-11-19T05:50:10;95414.50;;;9.80;100.00
13407;BME280;6774;48.208;10.766;2023-11-19T05:52:39;95408.22;;;9.81;100.00
13407;BME280;6774;48.208;10.766;2023-11-19T05:55:07;95422.63;;;10.00;100.00
13407;BME280;6774;48.208;10.766;2023-11-19T05:57:37;95414.72;;;10.00;100.00
13407;BME280;6774;48.208;10.766;2023-11-19T06:00:09;95418.88;;;9.73;100.00
13407;BME280;6774;48.208;10.766;2023-11-19T06:02:39;95434.91;;;9.78;100.00
13407;BME280;6774;48.208;10.766;2023-11-19T06:05:07;95445.13;;;9.81;100.00
13407;BME280;6774;48.208;10.766;2023-11-19T06:07:36;95442.38;;;9.89;100.00
13407;BME280;6774;48.208;10.766;2023-11-19T06:10:07;95427.97;;;10.07;100.00
13407;BME280;6774;48.208;10.766;2023-11-19T06:12:36;95419.69;;;10.10;100.00
13407;BME280;6774;48.208;10.766;2023-11-19T06:15:08;95413.31;;;10.04;100.00
13407;BME280;6774;48.208;10.766;2023-11-19T06:17:36;95406.72;;;9.93;100.00
13407;BME280;6774;48.208;10.766;2023-11-19T06:20:05;95421.13;;;10.12;100.00
13407;BME280;6774;48.208;10.766;2023-11-19T06:22:34;95419.50;;;10.11;100.00
13407;BME280;6774;48.208;10.766;2023-11-19T06:25:03;95416.56;;;10.21;100.00
13407;BME280;6774;48.208;10.766;2023-11-19T06:27:35;95401.06;;;9.96;100.00
13407;BME280;6774;48.208;10.766;2023-11-19T06:30:04;95411.25;;;10.00;100.00
13407;BME280;6774;48.208;10.766;2023-11-19T06:32:32;95405.88;;;10.08;100.00
13407;BME280;6774;48.208;10.766;2023-11-19T06:35:00;95419.69;;;10.10;100.00
13407;BME280;6774;48.208;10.766;2023-11-19T06:37:28;95421.59;;;10.16;100.00
13407;BME280;6774;48.208;10.766;2023-11-19T06:39:56;95415.91;;;10.34;100.00
13407;BME280;6774;48.208;10.766;2023-11-19T06:42:23;95426.16;;;10.43;100.00
13407;BME280;6774;48.208;10.766;2023-11-19T06:44:52;95434.19;;;10.35;100.00
13407;BME280;6774;48.208;10.766;2023-11-19T06:47:21;95441.34;;;10.41;99.98
13407;BME280;6774;48.208;10.766;2023-11-19T06:49:48;95444.47;;;10.30;100.00
13407;BME280;6774;48.208;10.766;2023-11-19T06:52:16;95438.22;;;10.52;99.81
13407;BME280;6774;48.208;10.766;2023-11-19T06:54:44;95441.91;;;10.37;100.00
13407;BME280;6774;48.208;10.766;2023-11-19T06:57:13;95432.78;;;10.39;100.00
13407;BME280;6774;48.208;10.766;2023-11-19T06:59:41;95435.31;;;10.47;100.00
13407;BME280;6774;48.208;10.766;2023-11-19T07:02:11;95436.06;;;10.41;100.00
13407;BME280;6774;48.208;10.766;2023-11-19T07:04:39;95444.03;;;10.27;100.00
13407;BME280;6774;48.208;10.766;2023-11-19T07:07:07;95437.53;;;10.44;100.00
13407;BME280;6774;48.208;10.766;2023-11-19T07:09:36;95447.56;;;10.55;100.00
13407;BME280;6774;48.208;10.766;2023-11-19T07:12:05;95451.53;;;10.44;100.00
13407;BME280;6774;48.208;10.766;2023-11-19T07:14:33;95446.75;;;10.54;100.00
13407;BME280;6774;48.208;10.766;2023-11-19T07:17:01;95452.25;;;10.38;100.00
13407;BME280;6774;48.208;10.766;2023-11-19T07:19:30;95451.63;;;10.58;100.00
13407;BME280;6774;48.208;10.766;2023-11-19T07:21:58;95467.59;;;10.28;100.00
13407;BME280;6774;48.208;10.766;2023-11-19T07:24:26;95472.56;;;10.38;100.00
13407;BME280;6774;48.208;10.766;2023-11-19T07:26:54;95468.59;;;10.48;100.00
13407;BME280;6774;48.208;10.766;2023-11-19T07:29:22;95477.13;;;10.50;100.00
13407;BME280;6774;48.208;10.766;2023-11-19T07:31:53;95474.50;;;10.50;100.00
13407;BME280;6774;48.208;10.766;2023-11-19T07:34:22;95474.25;;;10.45;100.00
13407;BME280;6774;48.208;10.766;2023-11-19T07:36:51;95483.81;;;10.68;100.00
13407;BME280;6774;48.208;10.766;2023-11-19T07:39:19;95482.94;;;10.61;100.00
13407;BME280;6774;48.208;10.766;2023-11-19T07:41:47;95474.13;;;10.75;100.00
13407;BME280;6774;48.208;10.766;2023-11-19T07:44:15;95467.31;;;10.87;100.00
13407;BME280;6774;48.208;10.766;2023-11-19T07:46:43;95475.50;;;10.92;100.00
13407;BME280;6774;48.208;10.766;2023-11-19T07:49:12;95470.13;;;10.79;100.00
13407;BME280;6774;48.208;10.766;2023-11-19T07:51:39;95489.59;;;10.99;100.00
13407;BME280;6774;48.208;10.766;2023-11-19T07:54:09;95498.78;;;10.82;100.00
13407;BME280;6774;48.208;10.766;2023-11-19T07:56:37;95479.16;;;10.91;100.00
13407;BME280;6774;48.208;10.766;2023-11-19T07:59:05;95485.19;;;11.06;100.00
13407;BME280;6774;48.208;10.766;2023-11-19T08:01:33;95478.75;;;11.16;99.11
13407;BME280;6774;48.208;10.766;2023-11-19T08:04:01;95476.47;;;11.13;98.40
13407;BME280;6774;48.208;10.766;2023-11-19T08:06:29;95478.63;;;11.30;97.94
13407;BME280;6774;48.208;10.766;2023-11-19T08:08:57;95484.88;;;11.23;98.24
13407;BME280;6774;48.208;10.766;2023-11-19T08:11:27;95490.34;;;11.21;97.37
13407;BME280;6774;48.208;10.766;2023-11-19T08:13:55;95514.38;;;11.54;96.59
13407;BME280;6774;48.208;10.766;2023-11-19T08:16:23;95496.50;;;11.56;96.72
13407;BME280;6774;48.208;10.766;2023-11-19T08:18:50;95505.84;;;11.52;96.69
13407;BME280;6774;48.208;10.766;2023-11-19T08:21:18;95502.06;;;11.68;96.08
13407;BME280;6774;48.208;10.766;2023-11-19T08:23:47;95512.28;;;11.78;95.18
13407;BME280;6774;48.208;10.766;2023-11-19T08:26:15;95497.91;;;11.80;94.79
13407;BME280;6774;48.208;10.766;2023-11-19T08:28:48;95513.91;;;11.72;95.74
13407;BME280;6774;48.208;10.766;2023-11-19T08:31:18;95514.81;;;11.86;95.53
13407;BME280;6774;48.208;10.766;2023-11-19T08:33:46;95500.47;;;12.08;95.17
13407;BME280;6774;48.208;10.766;2023-11-19T08:36:17;95500.56;;;11.87;95.03
13407;BME280;6774;48.208;10.766;2023-11-19T08:38:44;95503.50;;;11.99;94.90
13407;BME280;6774;48.208;10.766;2023-11-19T08:41:12;95508.28;;;11.82;95.58
13407;BME280;6774;48.208;10.766;2023-11-19T08:43:40;95512.28;;;11.78;95.85
13407;BME280;6774;48.208;10.766;2023-11-19T08:46:13;95514.03;;;11.92;95.57
13407;BME280;6774;48.208;10.766;2023-11-19T08:48:41;95507.53;;;11.94;95.50
13407;BME280;6774;48.208;10.766;2023-11-19T08:51:08;95495.41;;;11.79;95.65
13407;BME280;6774;48.208;10.766;2023-11-19T08:53:36;95503.00;;;11.82;96.20
13407;BME280;6774;48.208;10.766;2023-11-19T08:56:04;95500.22;;;11.96;95.50
13407;BME280;6774;48.208;10.766;2023-11-19T08:58:32;95503.44;;;11.92;95.78
13407;BME280;6774;48.208;10.766;2023-11-19T09:01:00;95493.94;;;12.04;95.78
13407;BME280;6774;48.208;10.766;2023-11-19T09:03:31;95499.38;;;11.96;96.13
13407;BME280;6774;48.208;10.766;2023-11-19T09:06:00;95489.47;;;11.98;95.28
13407;BME280;6774;48.208;10.766;2023-11-19T09:08:28;95488.63;;;11.69;96.61
13407;BME280;6774;48.208;10.766;2023-11-19T09:10:56;95486.66;;;11.78;96.76
13407;BME280;6774;48.208;10.766;2023-11-19T09:13:24;95494.06;;;11.83;96.71
13407;BME280;6774;48.208;10.766;2023-11-19T09:15:51;95504.69;;;11.96;96.57
13407;BME280;6774;48.208;10.766;2023-11-19T09:18:19;95507.84;;;12.19;95.85
13407;BME280;6774;48.208;10.766;2023-11-19T09:20:48;95496.59;;;12.04;95.60
13407;BME280;6774;48.208;10.766;2023-11-19T09:23:16;95509.59;;;11.99;96.51
13407;BME280;6774;48.208;10.766;2023-11-19T09:25:44;95506.84;;;12.20;96.26
13407;BME280;6774;48.208;10.766;2023-11-19T09:28:11;95511.69;;;12.10;96.59
13407;BME280;6774;48.208;10.766;2023-11-19T09:30:40;95508.63;;;12.13;96.35
13407;BME280;6774;48.208;10.766;2023-11-19T09:33:08;95506.88;;;12.34;96.46
13407;BME280;6774;48.208;10.766;2023-11-19T09:35:36;95511.56;;;12.32;96.58
13407;BME280;6774;48.208;10.766;2023-11-19T09:38:06;95507.50;;;12.42;95.47
13407;BME280;6774;48.208;10.766;2023-11-19T09:40:34;95501.97;;;12.31;95.91
13407;BME280;6774;48.208;10.766;2023-11-19T09:43:02;95523.25;;;12.57;94.37
13407;BME280;6774;48.208;10.766;2023-11-19T09:45:32;95500.47;;;12.63;94.29
13407;BME280;6774;48.208;10.766;2023-11-19T09:48:00;95500.72;;;12.81;93.86
13407;BME280;6774;48.208;10.766;2023-11-19T09:50:31;95510.25;;;12.89;93.53
13407;BME280;6774;48.208;10.766;2023-11-19T09:52:58;95493.94;;;12.65;93.09
13407;BME280;6774;48.208;10.766;2023-11-19T09:55:28;95484.81;;;12.81;93.72
13407;BME280;6774;48.208;10.766;2023-11-19T09:57:56;95476.47;;;12.91;93.34
13407;BME280;6774;48.208;10.766;2023-11-19T10:00:27;95480.16;;;12.90;92.96
13407;BME280;6774;48.208;10.766;2023-11-19T10:02:55;95489.09;;;12.95;92.11
13407;BME280;6774;48.208;10.766;2023-11-19T10:05:24;95479.94;;;13.11;91.35
13407;BME280;6774;48.208;10.766;2023-11-19T10:07:53;95462.63;;;13.42;91.28
13407;BME280;6774;48.208;10.766;2023-11-19T10:10:22;95457.19;;;13.88;89.53
13407;BME280;6774;48.208;10.766;2023-11-19T10:12:52;95460.44;;;13.97;87.99
13407;BME280;6774;48.208;10.766;2023-11-19T10:15:23;95459.25;;;13.92;87.28
13407;BME280;6774;48.208;10.766;2023-11-19T10:17:55;95448.72;;;13.66;89.52
13407;BME280;6774;48.208;10.766;2023-11-19T10:20:23;95456.38;;;14.39;87.59
13407;BME280;6774;48.208;10.766;2023-11-19T10:22:52;95461.34;;;14.98;84.21
13407;BME280;6774;48.208;10.766;2023-11-19T10:25:22;95449.41;;;15.32;83.66
13407;BME280;6774;48.208;10.766;2023-11-19T10:27:51;95455.44;;;15.46;83.25
13407;BME280;6774;48.208;10.766;2023-11-19T10:30:21;95441.13;;;14.97;82.53
13407;BME280;6774;48.208;10.766;2023-11-19T10:33:04;95452.66;;;14.08;86.41
13407;BME280;6774;48.208;10.766;2023-11-19T10:35:34;95451.75;;;14.28;86.74
13407;BME280;6774;48.208;10.766;2023-11-19T10:38:13;95461.59;;;14.90;85.58
13407;BME280;6774;48.208;10.766;2023-11-19T10:40:42;95435.28;;;14.57;85.13
13407;BME280;6774;48.208;10.766;2023-11-19T10:43:12;95451.75;;;14.97;84.94
13407;BME280;6774;48.208;10.766;2023-11-19T10:45:40;95432.13;;;15.23;83.71
13407;BME280;6774;48.208;10.766;2023-11-19T10:48:07;95427.00;;;14.72;84.44
13407;BME280;6774;48.208;10.766;2023-11-19T10:50:36;95438.31;;;14.16;86.32
13407;BME280;6774;48.208;10.766;2023-11-19T10:53:04;95423.41;;;14.60;86.58
13407;BME280;6774;48.208;10.766;2023-11-19T10:55:34;95429.22;;;15.50;83.54
13407;BME280;6774;48.208;10.766;2023-11-19T10:58:03;95413.03;;;15.51;82.99
13407;BME280;6774;48.208;10.766;2023-11-19T11:00:38;95434.09;;;15.10;83.11
13407;BME280;6774;48.208;10.766;2023-11-19T11:03:11;95436.78;;;15.28;83.12
13407;BME280;6774;48.208;10.766;2023-11-19T11:05:40;95416.28;;;16.08;81.89
13407;BME280;6774;48.208;10.766;2023-11-19T11:08:08;95420.97;;;15.95;81.47
13407;BME280;6774;48.208;10.766;2023-11-19T11:10:40;95405.16;;;15.20;82.38
13407;BME280;6774;48.208;10.766;2023-11-19T11:13:13;95398.31;;;15.74;82.05
13407;BME280;6774;48.208;10.766;2023-11-19T11:15:43;95391.91;;;15.56;81.36
13407;BME280;6774;48.208;10.766;2023-11-19T11:18:13;95402.78;;;15.12;82.81
13407;BME280;6774;48.208;10.766;2023-11-19T11:20:41;95401.47;;;14.71;84.68
13407;BME280;6774;48.208;10.766;2023-11-19T11:23:24;95394.94;;;14.35;86.24
13407;BME280;6774;48.208;10.766;2023-11-19T11:26:09;95409.53;;;14.58;86.53
13407;BME280;6774;48.208;10.766;2023-11-19T11:28:47;95389.06;;;14.65;85.53
13407;BME280;6774;48.208;10.766;2023-11-19T11:31:26;95387.59;;;14.69;85.58
13407;BME280;6774;48.208;10.766;2023-11-19T11:34:10;95378.31;;;14.78;84.99
13407;BME280;6774;48.208;10.766;2023-11-19T11:36:51;95374.78;;;14.59;86.77
13407;BME280;6774;48.208;10.766;2023-11-19T11:39:22;95378.44;;;14.65;85.10
13407;BME280;6774;48.208;10.766;2023-11-19T11:44:58;95382.31;;;15.37;83.92
13407;BME280;6774;48.208;10.766;2023-11-19T11:50:47;95384.81;;;16.05;79.29
13407;BME280;6774;48.208;10.766;2023-11-19T11:53:17;95383.78;;;15.88;79.68
13407;BME280;6774;48.208;10.766;2023-11-19T11:55:55;95394.25;;;15.28;82.00
13407;BME280;6774;48.208;10.766;2023-11-19T11:58:31;95385.34;;;16.26;79.27
13407;BME280;6774;48.208;10.766;2023-11-19T12:01:01;95367.41;;;15.91;79.88
13407;BME280;6774;48.208;10.766;2023-11-19T12:03:30;95392.59;;;16.37;78.58
13407;BME280;6774;48.208;10.766;2023-11-19T12:06:00;95385.53;;;15.82;80.29
13407;BME280;6774;48.208;10.766;2023-11-19T12:08:29;95391.25;;;15.79;79.98
13407;BME280;6774;48.208;10.766;2023-11-19T12:10:58;95383.72;;;15.15;82.05
13407;BME280;6774;48.208;10.766;2023-11-19T12:13:46;95361.47;;;15.34;81.89
13407;BME280;6774;48.208;10.766;2023-11-19T12:16:15;95381.31;;;15.13;81.85
13407;BME280;6774;48.208;10.766;2023-11-19T12:18:42;95382.47;;;15.79;81.83
13407;BME280;6774;48.208;10.766;2023-11-19T12:21:27;95365.38;;;16.05;79.82
13407;BME280;6774;48.208;10.766;2023-11-19T12:23:57;95370.56;;;15.63;80.90
13407;BME280;6774;48.208;10.766;2023-11-19T12:26:32;95356.13;;;15.34;81.70
13407;BME280;6774;48.208;10.766;2023-11-19T12:29:01;95372.63;;;14.99;82.79
13407;BME280;6774;48.208;10.766;2023-11-19T12:31:35;95366.94;;;15.39;81.43
13407;BME280;6774;48.208;10.766;2023-11-19T12:34:09;95373.97;;;15.08;82.57
13407;BME280;6774;48.208;10.766;2023-11-19T12:36:41;95369.16;;;14.99;83.68
13407;BME280;6774;48.208;10.766;2023-11-19T12:39:10;95369.16;;;14.99;83.20
13407;BME280;6774;48.208;10.766;2023-11-19T12:41:50;95363.06;;;15.35;82.78
13407;BME280;6774;48.208;10.766;2023-11-19T12:44:18;95367.00;;;15.32;81.98
13407;BME280;6774;48.208;10.766;2023-11-19T12:46:46;95373.66;;;14.98;82.54
13407;BME280;6774;48.208;10.766;2023-11-19T12:49:14;95373.41;;;15.25;81.83
13407;BME280;6774;48.208;10.766;2023-11-19T12:51:43;95365.31;;;14.70;84.11
13407;BME280;6774;48.208;10.766;2023-11-19T12:54:11;95360.88;;;14.64;83.89
13407;BME280;6774;48.208;10.766;2023-11-19T12:56:40;95361.75;;;14.58;84.03
13407;BME280;6774;48.208;10.766;2023-11-19T12:59:11;95363.47;;;14.39;85.59
13407;BME280;6774;48.208;10.766;2023-11-19T13:01:39;95355.13;;;13.97;86.24
13407;BME280;6774;48.208;10.766;2023-11-19T13:04:17;95372.50;;;14.31;85.62
13407;BME280;6774;48.208;10.766;2023-11-19T13:06:47;95343.22;;;14.13;86.55
13407;BME280;6774;48.208;10.766;2023-11-19T13:09:21;95328.66;;;13.90;87.51
13407;BME280;6774;48.208;10.766;2023-11-19T13:11:49;95340.94;;;13.78;87.95
13407;BME280;6774;48.208;10.766;2023-11-19T13:14:17;95354.38;;;13.90;88.70
13407;BME280;6774;48.208;10.766;2023-11-19T13:16:45;95356.06;;;14.16;87.51